• Join FlightAware (Why Join?)
  • Login
  • US Flag 
07:20PM EST


 

Airport Tracker/Info


-or-


 

Live Flight TrackerFlight Track Log ✈ N1157N ✈ 27-May-2013 ✈ KRHV - KTOA

Flight Track Log - Related Links

Times and Time Zones

All times are in EDT time to prevent confusion due to time zone crossing. See the N1157N flight status page for this flight to view local times or setup timezone preferences in your user account.

Time Position Orientation Groundspeed Altitude Reporting Facility
EDT Latitude Longitude Course Direction KTS MPH feet Rate Location/Type
05:38PM 37.3500 -121.8333 322° Northwest 74 85 1,200  Level Northern Cal TRACON
05:39PM 37.3667 -121.8500 322° Northwest 81 93 1,900 600 Climbing Northern Cal TRACON
05:40PM 37.3758 -121.8492 North 74 85 2,300 600 Climbing Oakland Center
05:40PM 37.3833 -121.8500 355° North 88 101 2,500 780 Climbing Northern Cal TRACON
05:41PM 37.4167 -121.8333 22° Northeast 89 102 3,300 720 Climbing Northern Cal TRACON
05:42PM 37.4167 -121.8000 90° East 101 116 3,900 600 Climbing Northern Cal TRACON
05:43PM 37.4000 -121.7833 142° Southeast 104 120 4,600 600 Climbing Northern Cal TRACON
05:44PM 37.3833 -121.7500 122° Southeast 99 114 5,200 600 Climbing Northern Cal TRACON
05:45PM 37.3667 -121.7167 122° Southeast 104 120 5,800 420 Climbing Northern Cal TRACON
05:46PM 37.3500 -121.7000 142° Southeast 119 137 6,100 120 Climbing Northern Cal TRACON
05:47PM 37.3333 -121.6500 113° Southeast 159 183 6,100  Level Northern Cal TRACON
05:48PM 37.3000 -121.6167 141° Southeast 170 196 6,100 180 Level Northern Cal TRACON
05:49PM 37.2667 -121.5667 130° Southeast 154 177 6,500 360 Climbing Northern Cal TRACON
05:50PM 37.2356 -121.5317 138° Southeast 133 153 7,000 420 Climbing Oakland Center
05:51PM 37.2100 -121.4964 132° Southeast 135 155 7,500 420 Climbing Oakland Center
05:52PM 37.1839 -121.4631 135° Southeast 134 154 7,900 300 Climbing Oakland Center
05:53PM 37.1600 -121.4267 129° Southeast 134 154 8,200 300 Climbing Oakland Center
05:54PM 37.1369 -121.3911 129° Southeast 132 152 8,600 300 Climbing Oakland Center
05:55PM 37.1142 -121.3525 126° Southeast 138 159 8,900 240 Climbing Oakland Center
05:56PM 37.0925 -121.3117 124° Southeast 140 161 9,200 120 Climbing Oakland Center
05:57PM 37.0608 -121.2622 129° Southeast 158 182 9,200 -60 Level Oakland Center
05:58PM 37.0344 -121.2161 126° Southeast 162 186 9,100 -60 Descending Oakland Center
05:59PM 37.0078 -121.1692 125° Southeast 164 189 9,100  Level Oakland Center
06:00PM 36.9747 -121.1250 133° Southeast 166 191 9,100  Level Oakland Center
06:01PM 36.9444 -121.0842 133° Southeast 162 186 9,200  Climbing Oakland Center
06:02PM 36.9136 -121.0411 132° Southeast 165 190 9,100 -60 Descending Oakland Center
06:03PM 36.8831 -120.9992 132° Southeast 163 188 9,100  Level Oakland Center
06:04PM 36.8514 -120.9569 133° Southeast 166 191 9,100  Level Oakland Center
06:05PM 36.8192 -120.9164 135° Southeast 164 189 9,100  Level Oakland Center
06:06PM 36.7869 -120.8778 136° Southeast 162 186 9,100  Level Oakland Center
06:07PM 36.7511 -120.8281 132° Southeast 160 184 9,100 -60 Level Oakland Center
06:08PM 36.7222 -120.7831 129° Southeast 162 186 9,000 -60 Descending Oakland Center
06:09PM 36.6850 -120.7506 145° Southeast 164 189 9,000  Level Oakland Center
06:11PM 36.6439 -120.7294 158° South 160 184 9,000  Level Oakland Center
06:12PM 36.6042 -120.6992 149° Southeast 167 192 9,000  Level Oakland Center
06:13PM 36.5653 -120.6656 145° Southeast 168 193 9,000  Level Oakland Center
06:14PM 36.5283 -120.6342 146° Southeast 162 186 9,100 60 Climbing Oakland Center
06:15PM 36.4881 -120.6044 149° Southeast 167 192 9,200  Climbing Oakland Center
06:16PM 36.4383 -120.5736 153° Southeast 167 192 9,200 -60 Level Oakland Center
06:17PM 36.3983 -120.5464 151° Southeast 165 190 9,100  Descending Oakland Center
06:18PM 36.3597 -120.5125 145° Southeast 168 193 9,200  Climbing Oakland Center
06:19PM 36.3211 -120.4769 143° Southeast 172 198 9,100 -60 Descending Oakland Center
06:20PM 36.2833 -120.4447 145° Southeast 166 191 9,100  Level Oakland Center
06:21PM 36.2433 -120.4139 148° Southeast 169 194 9,200  Climbing Oakland Center
06:22PM 36.2011 -120.3872 153° Southeast 169 194 9,100 -60 Descending Oakland Center
06:23PM 36.1578 -120.3611 154° Southeast 172 198 9,100  Level Oakland Center
06:24PM 36.1069 -120.3261 151° Southeast 174 200 9,100  Level Oakland Center
06:25PM 36.0661 -120.2906 145° Southeast 176 203 9,100  Level Oakland Center
06:26PM 36.0250 -120.2572 147° Southeast 177 204 9,200  Climbing Oakland Center
06:27PM 35.9817 -120.2292 152° Southeast 176 203 9,100 -120 Descending Oakland Center
06:28PM 35.9394 -120.1958 147° Southeast 177 204 9,000  Descending Oakland Center
06:29PM 35.8997 -120.1614 145° Southeast 176 203 9,100  Climbing Oakland Center
06:30PM 35.8581 -120.1281 147° Southeast 176 203 9,000  Descending Oakland Center
06:31PM 35.8139 -120.1006 153° Southeast 178 205 9,100  Climbing Oakland Center
06:32PM 35.7711 -120.0728 152° Southeast 176 203 9,000 -60 Descending Oakland Center
06:33PM 35.7203 -120.0400 152° Southeast 174 200 9,000  Level Oakland Center
06:34PM 35.6781 -120.0106 150° Southeast 173 199 9,000  Level Oakland Center
06:35PM 35.6397 -119.9769 145° Southeast 171 197 9,000  Level Oakland Center
06:36PM 35.6069 -119.9342 133° Southeast 170 196 9,000  Level Los Angeles Center
06:37PM 35.5783 -119.8861 126° Southeast 172 198 9,000  Level Los Angeles Center
06:38PM 35.5453 -119.8439 134° Southeast 172 198 9,000  Level Oakland Center
06:39PM 35.5108 -119.8017 135° Southeast 174 200 9,100 240 Climbing Oakland Center
06:40PM 35.4794 -119.7589 132° Southeast 171 197 9,500 240 Climbing Oakland Center
06:41PM 35.4528 -119.7222 132° Southeast 153 176 9,700 240 Climbing Oakland Center
06:42PM 35.4206 -119.6775 131° Southeast 147 169 10,100 300 Climbing Oakland Center
06:43PM 35.3936 -119.6389 131° Southeast 148 170 10,400 300 Climbing Oakland Center
06:44PM 35.3667 -119.5989 130° Southeast 151 174 10,800 300 Climbing Oakland Center
06:45PM 35.3619 -119.5917 129° Southeast 150 173 10,800 180 Level Los Angeles Center
06:46PM 35.3356 -119.5519 129° Southeast 148 170 11,100 180 Climbing Los Angeles Center
06:47PM 35.3000 -119.5058 133° Southeast 152 175 11,200  Climbing Los Angeles Center
06:48PM 35.2672 -119.4661 135° Southeast 161 185 11,200  Level Los Angeles Center
06:49PM 35.2350 -119.4236 133° Southeast 168 193 11,200  Level Los Angeles Center
06:50PM 35.2019 -119.3831 135° Southeast 168 193 11,200  Level Los Angeles Center
06:51PM 35.1678 -119.3414 135° Southeast 171 197 11,200  Level Los Angeles Center
06:52PM 35.1347 -119.3003 135° Southeast 170 196 11,200  Level Los Angeles Center
06:53PM 35.0978 -119.2494 132° Southeast 167 192 11,200  Level Los Angeles Center
06:54PM 35.0675 -119.2064 131° Southeast 167 192 11,200  Level Los Angeles Center
06:55PM 35.0300 -119.1558 132° Southeast 166 191 11,200 -180 Level Los Angeles Center
06:56PM 34.9975 -119.1119 132° Southeast 171 197 10,900  Descending Los Angeles Center
06:57PM 34.9661 -119.0694 132° Southeast 170 196 11,200 120 Climbing Los Angeles Center
06:58PM 34.9358 -119.0250 130° Southeast 172 198 11,200  Level Los Angeles Center
06:59PM 34.9022 -118.9675 125° Southeast 173 199 11,200 -60 Level Los Angeles Center
07:00PM 34.8756 -118.9244 127° Southeast 171 197 11,100 -60 Descending Los Angeles Center
07:01PM 34.8467 -118.8769 127° Southeast 173 199 11,100  Level Los Angeles Center
07:02PM 34.8197 -118.8303 125° Southeast 170 196 11,100  Level Los Angeles Center
07:03PM 34.7908 -118.7678 119° Southeast 176 203 11,100 -60 Level Los Angeles Center
07:04PM 34.7664 -118.7214 123° Southeast 168 193 11,000 -60 Descending Los Angeles Center
07:06PM 34.7381 -118.6733 126° Southeast 175 201 11,000  Level Los Angeles Center
07:07PM 34.7089 -118.6261 127° Southeast 173 199 11,100  Climbing Los Angeles Center
07:08PM 34.6797 -118.5781 126° Southeast 176 203 11,100  Level Los Angeles Center
07:09PM 34.6394 -118.5494 150° Southeast 167 192 11,100 -60 Level Los Angeles Center
07:10PM 34.5828 -118.5297 164° South 175 201 11,000 -60 Descending Los Angeles Center
07:11PM 34.5367 -118.5097 160° South 176 203 11,000 -420 Level Los Angeles Center
07:12PM 34.4867 -118.4828 156° South 194 223 10,200 -720 Descending Los Angeles Center
07:13PM 34.4344 -118.4531 155° Southeast 206 237 9,600 -480 Descending Los Angeles Center
07:14PM 34.3872 -118.4239 153° Southeast 191 220 9,300 -240 Descending Los Angeles Center
07:15PM 34.3347 -118.3897 152° Southeast 180 207 9,100 -120 Descending Los Angeles Center
07:16PM 34.2933 -118.3611 150° Southeast 175 201 9,100  Level Los Angeles Center
07:17PM 34.2525 -118.3353 152° Southeast 168 193 9,100  Level Los Angeles Center
07:18PM 34.2131 -118.3100 152° Southeast 164 189 9,100  Level Los Angeles Center
07:19PM 34.1750 -118.2836 150° Southeast 159 183 9,100  Level Los Angeles Center
07:20PM 34.1358 -118.2600 153° Southeast 158 182 9,100  Level Los Angeles Center
07:21PM 34.0892 -118.2325 154° Southeast 156 180 9,100  Level Los Angeles Center
07:22PM 34.0492 -118.2150 160° South 154 177 9,100  Level Los Angeles Center
07:23PM 34.0106 -118.1961 158° South 150 173 9,100 -540 Level Los Angeles Center
07:24PM 33.9631 -118.2042 188° South 168 193 8,100 -540 Descending Los Angeles Center
07:25PM 33.9156 -118.2119 188° South 172 198 8,100 -120 Level Los Angeles Center
07:26PM 33.8731 -118.2186 187° South 163 188 7,900 -480 Descending Los Angeles Center
07:27PM 33.8164 -118.2267 187° South 166 191 7,100 -600 Descending Los Angeles Center
07:28PM 33.7853 -118.1972 142° Southeast 175 201 6,700 -660 Descending Los Angeles Center
07:29PM 33.7397 -118.1594 145° Southeast 179 206 5,800 -840 Descending Los Angeles Center
07:30PM 33.6947 -118.1744 196° South 169 194 5,000 -780 Descending Los Angeles Center
07:31PM 33.6769 -118.2142 242° Southwest 170 196 4,300 -720 Descending Los Angeles Center
07:32PM 33.7042 -118.2486 314° West 147 169 3,600 -720 Descending Los Angeles Center
07:33PM 33.7367 -118.2592 345° North 129 148 2,900 -720 Descending Los Angeles Center
07:36PM 33.7943 -118.3267 316° Northwest  Level FlightAware Approximate
07:43PM 33.8000 -118.3333 325° Northwest  Level FlightAware Approximate
07:44PM 33.8034 -118.3396 325° Northwest  Level Estimated
07:45PM 33.8000 -118.3333 325° Northwest  Level FlightAware Approximate
07:46PM 33.8034 -118.3396 325° Northwest  Level Estimated